Time;durP1;ratioP1;P1;durP2;ratioP2;P2;SDS_P1;SDS_P2;PMS_P1;PMS_P2;Temp;Humidity;BMP_temperature;BMP_pressure;BME280_temperature;BME280_humidity;BME280_pressure;Samples;Min_cycle;Max_cycle;Signal;HPM_P1;HPM_P2
2021/05/09 00:01:00;;;;;;;8.17;5.23;;;13.80;99.90;;;;;;4426614;32;20222;-65
2021/05/09 00:03:27;;;;;;;8.80;4.50;;;13.80;99.90;;;;;;4430324;32;20178;-64
2021/05/09 00:05:53;;;;;;;5.57;4.20;;;13.80;99.90;;;;;;4435423;32;20135;-61
2021/05/09 00:08:20;;;;;;;9.13;5.27;;;13.80;99.90;;;;;;4428957;32;20251;-61
2021/05/09 00:10:47;;;;;;;7.87;4.70;;;13.80;99.90;;;;;;4434094;32;20305;-62
2021/05/09 00:13:14;;;;;;;10.67;5.30;;;13.80;99.90;;;;;;4424713;32;20214;-64
2021/05/09 00:15:40;;;;;;;9.17;5.03;;;13.80;99.90;;;;;;4423116;32;20698;-63
2021/05/09 00:18:07;;;;;;;7.73;4.60;;;13.70;99.90;;;;;;4422222;32;20358;-62
2021/05/09 00:20:33;;;;;;;6.90;4.57;;;13.70;99.90;;;;;;4422460;32;20494;-62
2021/05/09 00:23:02;;;;;;;5.07;3.87;;;13.70;99.90;;;;;;4420294;32;20192;-65
2021/05/09 00:25:28;;;;;;;4.97;4.47;;;13.70;99.90;;;;;;4427308;32;20143;-62
2021/05/09 00:27:54;;;;;;;9.00;4.53;;;13.70;99.90;;;;;;4426109;32;20166;-62
2021/05/09 00:30:22;;;;;;;6.13;4.77;;;13.70;99.90;;;;;;4424307;32;20252;-61
2021/05/09 00:32:48;;;;;;;9.43;4.80;;;13.70;99.90;;;;;;4422342;32;20139;-61
2021/05/09 00:35:15;;;;;;;7.27;4.30;;;13.80;99.90;;;;;;4425692;32;20253;-65
2021/05/09 00:37:41;;;;;;;6.67;4.83;;;13.80;99.90;;;;;;4421497;32;20150;-62
2021/05/09 00:40:09;;;;;;;6.73;4.77;;;13.70;99.90;;;;;;4432337;32;20162;-64
2021/05/09 00:42:36;;;;;;;8.20;4.90;;;13.70;99.90;;;;;;4434521;32;20159;-64
2021/05/09 00:45:02;;;;;;;8.03;4.73;;;13.60;99.90;;;;;;4429506;32;20159;-63
2021/05/09 00:47:29;;;;;;;9.90;4.67;;;13.60;99.90;;;;;;4436711;32;20151;-62
2021/05/09 00:49:57;;;;;;;6.63;5.40;;;13.60;99.90;;;;;;4429628;32;20238;-66
2021/05/09 00:52:25;;;;;;;7.30;4.47;;;13.60;99.90;;;;;;4434248;32;20148;-63
2021/05/09 00:54:53;;;;;;;7.23;4.80;;;13.60;99.90;;;;;;4424042;32;20299;-62
2021/05/09 00:57:21;;;;;;;8.33;4.93;;;13.50;99.90;;;;;;4431919;32;20527;-61
2021/05/09 00:59:50;;;;;;;11.77;5.37;;;13.50;99.90;;;;;;4426494;32;20265;-66
2021/05/09 01:02:17;;;;;;;6.77;4.97;;;13.40;99.90;;;;;;4433185;32;20203;-63
2021/05/09 01:04:46;;;;;;;8.03;4.80;;;13.40;99.90;;;;;;4431076;32;20166;-63
2021/05/09 01:07:12;;;;;;;9.80;4.90;;;13.40;99.90;;;;;;4427753;32;20155;-64
2021/05/09 01:09:38;;;;;;;5.63;4.67;;;13.30;99.90;;;;;;4423372;32;20143;-63
2021/05/09 01:12:09;;;;;;;7.47;4.97;;;13.30;99.90;;;;;;4421630;32;20585;-62
2021/05/09 01:14:35;;;;;;;9.20;4.90;;;13.30;99.90;;;;;;4422079;32;20593;-63
2021/05/09 01:17:02;;;;;;;7.33;5.27;;;13.30;99.90;;;;;;4420713;32;20146;-61
2021/05/09 01:19:28;;;;;;;9.23;5.00;;;13.30;99.90;;;;;;4428783;32;20256;-62
2021/05/09 01:21:55;;;;;;;6.90;4.53;;;13.30;99.90;;;;;;4428264;32;20265;-62
2021/05/09 01:24:22;;;;;;;8.17;4.83;;;13.30;99.90;;;;;;4430852;32;20165;-63
2021/05/09 01:26:48;;;;;;;9.70;4.90;;;13.30;99.90;;;;;;4425659;32;20218;-62
2021/05/09 01:29:14;;;;;;;7.93;5.17;;;13.30;99.90;;;;;;4428205;32;20167;-63
2021/05/09 01:31:43;;;;;;;6.00;4.40;;;13.20;99.90;;;;;;4427408;32;20571;-63
2021/05/09 01:34:10;;;;;;;5.67;4.30;;;13.30;99.90;;;;;;4430108;32;20167;-64
2021/05/09 01:36:36;;;;;;;9.17;5.13;;;13.30;99.90;;;;;;4431583;32;20208;-65
2021/05/09 01:39:04;;;;;;;8.50;4.90;;;13.20;99.90;;;;;;4423358;32;20223;-61
2021/05/09 01:41:31;;;;;;;8.23;5.17;;;13.20;99.90;;;;;;4429085;32;20329;-62
2021/05/09 01:43:57;;;;;;;8.47;5.47;;;13.20;99.90;;;;;;4430168;32;20293;-65
2021/05/09 01:46:23;;;;;;;6.17;4.63;;;13.20;99.90;;;;;;4424431;32;20483;-64
2021/05/09 01:48:50;;;;;;;7.93;5.10;;;13.20;99.90;;;;;;4437448;32;20170;-64
2021/05/09 01:51:16;;;;;;;5.90;4.57;;;13.10;99.90;;;;;;4431671;32;20208;-61
2021/05/09 01:53:43;;;;;;;7.47;4.93;;;13.10;99.90;;;;;;4433082;32;20147;-62
2021/05/09 01:56:10;;;;;;;7.23;5.03;;;13.10;99.90;;;;;;4427663;32;20238;-61
2021/05/09 01:58:36;;;;;;;8.43;5.20;;;13.10;99.90;;;;;;4426092;32;20211;-64
2021/05/09 02:01:03;;;;;;;6.17;4.50;;;13.10;99.90;;;;;;4427247;32;20602;-63
2021/05/09 02:03:31;;;;;;;6.67;4.60;;;13.00;99.90;;;;;;4427551;32;20143;-62
2021/05/09 02:05:58;;;;;;;7.93;4.87;;;13.00;99.90;;;;;;4425324;32;20155;-63
2021/05/09 02:08:24;;;;;;;7.03;4.77;;;13.00;99.90;;;;;;4426999;32;20613;-62
2021/05/09 02:10:50;;;;;;;5.77;4.40;;;12.90;99.90;;;;;;4427275;32;20222;-65
2021/05/09 02:13:17;;;;;;;6.43;4.73;;;13.00;99.90;;;;;;4424995;32;20682;-66
2021/05/09 02:15:44;;;;;;;6.67;4.93;;;12.90;99.90;;;;;;4422782;32;20349;-62
2021/05/09 02:18:10;;;;;;;8.13;4.70;;;12.90;99.90;;;;;;4424764;32;20219;-62
2021/05/09 02:20:36;;;;;;;11.83;5.17;;;12.90;99.90;;;;;;4429570;32;20215;-61
2021/05/09 02:23:03;;;;;;;7.80;5.37;;;12.90;99.90;;;;;;4436104;32;20472;-62
2021/05/09 02:25:29;;;;;;;6.67;4.83;;;12.90;99.90;;;;;;4426624;32;20628;-62
2021/05/09 02:27:56;;;;;;;6.87;4.90;;;12.90;99.90;;;;;;4434094;32;20151;-63
2021/05/09 02:30:23;;;;;;;11.13;5.33;;;12.90;99.90;;;;;;4435521;32;20547;-62
2021/05/09 02:32:49;;;;;;;7.77;4.93;;;12.90;99.90;;;;;;4433268;32;20190;-62
2021/05/09 02:35:16;;;;;;;5.77;4.50;;;12.80;99.90;;;;;;4428567;32;20171;-62
2021/05/09 02:37:42;;;;;;;9.60;4.63;;;12.80;99.90;;;;;;4433719;32;20239;-68
2021/05/09 02:40:10;;;;;;;6.67;5.20;;;12.70;99.90;;;;;;4434813;32;20173;-61
2021/05/09 02:42:43;;;;;;;6.23;4.20;;;12.80;99.90;;;;;;4429571;32;20548;-61
2021/05/09 02:45:10;;;;;;;6.73;5.03;;;12.60;99.90;;;;;;4433238;32;20140;-62
2021/05/09 02:47:37;;;;;;;7.47;5.20;;;12.60;99.90;;;;;;4423121;32;20202;-65
2021/05/09 02:50:07;;;;;;;7.73;5.47;;;12.60;99.90;;;;;;4434939;32;20490;-64
2021/05/09 02:52:33;;;;;;;8.10;4.97;;;12.60;99.90;;;;;;4436598;32;20202;-64
2021/05/09 02:55:00;;;;;;;7.77;5.07;;;12.70;99.90;;;;;;4439295;32;20142;-63
2021/05/09 02:57:26;;;;;;;7.03;4.30;;;12.60;99.90;;;;;;4430163;32;20213;-63
2021/05/09 02:59:53;;;;;;;8.83;4.73;;;12.60;99.90;;;;;;4422647;32;20218;-63
2021/05/09 03:02:19;;;;;;;7.90;5.07;;;12.50;99.90;;;;;;4421818;32;20167;-64
2021/05/09 03:04:46;;;;;;;8.40;4.73;;;12.50;99.90;;;;;;4426663;32;20226;-63
2021/05/09 03:07:13;;;;;;;9.83;5.20;;;12.40;99.90;;;;;;4436283;32;20175;-63
2021/05/09 03:09:39;;;;;;;9.00;4.90;;;12.40;99.90;;;;;;4422580;32;20212;-65
2021/05/09 03:12:07;;;;;;;9.20;4.63;;;12.40;99.90;;;;;;4429775;32;20182;-62
2021/05/09 03:14:33;;;;;;;8.77;5.40;;;12.30;99.90;;;;;;4428641;32;20178;-61
2021/05/09 03:16:59;;;;;;;5.87;4.90;;;12.30;99.90;;;;;;4422141;32;20666;-62
2021/05/09 03:19:26;;;;;;;10.00;5.13;;;12.30;99.90;;;;;;4427173;32;20196;-62
2021/05/09 03:21:53;;;;;;;7.63;5.13;;;12.20;99.90;;;;;;4430764;32;20175;-62
2021/05/09 03:24:19;;;;;;;7.73;4.53;;;12.20;99.90;;;;;;4437985;32;20221;-62
2021/05/09 03:26:45;;;;;;;6.10;4.27;;;12.30;99.90;;;;;;4436458;32;20163;-60
2021/05/09 03:29:12;;;;;;;8.07;4.47;;;12.30;99.90;;;;;;4433125;32;20163;-61
2021/05/09 03:31:39;;;;;;;7.00;4.97;;;12.20;99.90;;;;;;4424293;32;20498;-62
2021/05/09 03:34:05;;;;;;;6.60;4.47;;;12.20;99.90;;;;;;4429372;32;20432;-60
2021/05/09 03:36:32;;;;;;;8.67;4.27;;;12.20;99.90;;;;;;4428909;32;20147;-61
2021/05/09 03:39:02;;;;;;;7.37;4.93;;;12.20;99.90;;;;;;4434223;32;20206;-61
2021/05/09 03:41:28;;;;;;;6.60;4.37;;;12.20;99.90;;;;;;4425412;32;20220;-61
2021/05/09 03:43:55;;;;;;;10.03;5.30;;;12.20;99.90;;;;;;4426566;32;20281;-63
2021/05/09 03:46:21;;;;;;;7.80;5.37;;;12.20;99.90;;;;;;4422606;32;20213;-63
2021/05/09 03:48:54;;;;;;;7.00;4.93;;;12.20;99.90;;;;;;4416399;32;20328;-64
2021/05/09 03:51:20;;;;;;;8.00;5.10;;;12.20;99.90;;;;;;4428633;32;20159;-65
2021/05/09 03:53:46;;;;;;;7.20;4.73;;;12.20;99.90;;;;;;4434511;32;20162;-62
2021/05/09 03:56:17;;;;;;;6.20;4.90;;;12.20;99.90;;;;;;4429891;32;20182;-61
2021/05/09 03:58:43;;;;;;;9.67;5.60;;;12.20;99.90;;;;;;4422059;32;20539;-62
2021/05/09 04:01:09;;;;;;;11.70;5.97;;;12.20;99.90;;;;;;4428252;32;20248;-63
2021/05/09 04:03:36;;;;;;;7.23;5.07;;;12.20;99.90;;;;;;4420702;32;20621;-62
2021/05/09 04:06:02;;;;;;;6.40;5.30;;;12.10;99.90;;;;;;4432457;32;20166;-62
2021/05/09 04:08:29;;;;;;;8.77;5.20;;;12.20;99.90;;;;;;4435629;32;20712;-63
2021/05/09 04:10:57;;;;;;;8.13;5.13;;;12.20;99.90;;;;;;4434872;32;20221;-66
2021/05/09 04:13:24;;;;;;;9.17;5.97;;;12.20;99.90;;;;;;4435303;32;20555;-61
2021/05/09 04:15:53;;;;;;;10.17;5.77;;;12.20;99.90;;;;;;4428506;32;20148;-62
2021/05/09 04:18:19;;;;;;;6.83;5.50;;;12.30;99.90;;;;;;4432095;32;20226;-62
2021/05/09 04:20:46;;;;;;;6.73;5.33;;;12.30;99.90;;;;;;4434617;32;20546;-62
2021/05/09 04:23:14;;;;;;;8.13;5.63;;;12.30;99.90;;;;;;4435240;32;20234;-62
2021/05/09 04:25:42;;;;;;;6.90;5.37;;;12.40;99.90;;;;;;4429814;32;20474;-61
2021/05/09 04:28:08;;;;;;;8.90;5.63;;;12.40;99.90;;;;;;4420195;32;20171;-62
2021/05/09 04:30:35;;;;;;;9.93;5.87;;;12.50;99.90;;;;;;4428020;32;20234;-61
2021/05/09 04:33:04;;;;;;;9.87;5.67;;;12.50;99.90;;;;;;4420579;32;20191;-62
2021/05/09 04:35:31;;;;;;;14.00;5.47;;;12.60;99.90;;;;;;4431856;32;20218;-62
2021/05/09 04:37:58;;;;;;;9.00;5.10;;;12.70;99.90;;;;;;4426041;32;20183;-61
2021/05/09 04:40:27;;;;;;;10.53;5.13;;;12.80;99.90;;;;;;4429581;32;20505;-60
2021/05/09 04:42:55;;;;;;;7.80;5.50;;;12.90;99.90;;;;;;4423104;32;20171;-61
2021/05/09 04:45:21;;;;;;;7.93;5.10;;;13.00;99.90;;;;;;4433393;32;20159;-62
2021/05/09 04:47:51;;;;;;;10.43;5.43;;;13.10;99.90;;;;;;4435891;32;20174;-61
2021/05/09 04:50:17;;;;;;;7.70;5.30;;;13.20;99.90;;;;;;4423826;32;20213;-61
2021/05/09 04:52:44;;;;;;;8.40;5.73;;;13.30;99.90;;;;;;4433439;32;20177;-62
2021/05/09 04:55:11;;;;;;;7.67;5.60;;;13.60;99.90;;;;;;4430500;32;20151;-61
2021/05/09 04:57:37;;;;;;;8.80;5.30;;;14.00;99.90;;;;;;4421663;32;20266;-62
2021/05/09 05:00:05;;;;;;;6.17;4.97;;;14.40;99.90;;;;;;4429193;32;20233;-62
2021/05/09 05:02:31;;;;;;;7.77;5.13;;;14.60;99.90;;;;;;4432930;32;20511;-62
2021/05/09 05:04:59;;;;;;;8.90;5.60;;;14.90;99.90;;;;;;4424903;32;20212;-62
2021/05/09 05:07:25;;;;;;;8.27;4.70;;;15.60;99.90;;;;;;4421127;32;20161;-61
2021/05/09 05:09:51;;;;;;;6.37;3.47;;;18.60;97.80;;;;;;4432280;32;20630;-62
2021/05/09 05:12:17;;;;;;;5.97;4.30;;;21.70;89.80;;;;;;4430924;32;20178;-62
2021/05/09 05:14:44;;;;;;;8.07;3.83;;;21.80;83.00;;;;;;4430893;32;20139;-62
2021/05/09 05:17:12;;;;;;;8.90;5.03;;;20.70;83.30;;;;;;4430057;32;20155;-63
2021/05/09 05:19:38;;;;;;;6.67;4.20;;;19.70;87.40;;;;;;4420442;32;20583;-64
2021/05/09 05:22:09;;;;;;;5.50;4.10;;;19.00;88.10;;;;;;4422061;32;20162;-63
2021/05/09 05:24:35;;;;;;;6.87;4.50;;;18.40;90.30;;;;;;4428025;32;20506;-63
2021/05/09 05:27:03;;;;;;;6.87;4.50;;;17.90;91.10;;;;;;4432436;32;20167;-62
2021/05/09 05:29:29;;;;;;;6.60;4.83;;;17.40;92.20;;;;;;4434512;32;20216;-62
2021/05/09 05:31:56;;;;;;;6.33;4.43;;;17.30;93.10;;;;;;4435571;32;20166;-62
2021/05/09 05:34:22;;;;;;;7.47;4.30;;;17.70;93.40;;;;;;4430198;32;20155;-62
2021/05/09 05:36:48;;;;;;;9.27;4.53;;;18.80;92.10;;;;;;4431066;32;20263;-64
2021/05/09 05:39:16;;;;;;;6.23;4.03;;;19.40;90.00;;;;;;4421021;32;20159;-63
2021/05/09 05:41:44;;;;;;;5.87;3.93;;;19.10;89.70;;;;;;4427689;32;20155;-62
2021/05/09 05:44:11;;;;;;;8.30;4.63;;;18.70;89.70;;;;;;4422480;32;20170;-62
2021/05/09 05:46:37;;;;;;;6.07;4.50;;;18.50;90.90;;;;;;4436918;32;20190;-62
2021/05/09 05:49:03;;;;;;;6.07;4.47;;;18.50;91.10;;;;;;4420800;32;20222;-61
2021/05/09 05:51:30;;;;;;;6.87;4.57;;;18.50;90.70;;;;;;4422678;32;20163;-62
2021/05/09 05:53:58;;;;;;;5.63;4.23;;;18.20;91.20;;;;;;4425895;32;20222;-61
2021/05/09 05:56:26;;;;;;;5.97;4.27;;;17.90;91.60;;;;;;4431406;32;20578;-61
2021/05/09 05:58:52;;;;;;;5.03;4.53;;;17.80;91.70;;;;;;4427981;32;20159;-62
2021/05/09 06:01:18;;;;;;;6.73;4.27;;;17.70;92.10;;;;;;4424783;32;20179;-61
2021/05/09 06:03:45;;;;;;;6.37;4.87;;;17.80;92.30;;;;;;4429371;32;20175;-62
2021/05/09 06:06:11;;;;;;;7.00;4.33;;;18.20;92.90;;;;;;4426663;32;20218;-62
2021/05/09 06:08:39;;;;;;;4.70;4.03;;;19.20;90.40;;;;;;4432392;32;20151;-62
2021/05/09 06:11:05;;;;;;;6.60;4.07;;;20.50;86.60;;;;;;4427968;32;20146;-63
2021/05/09 06:13:32;;;;;;;6.77;3.97;;;22.30;81.30;;;;;;4427737;32;20668;-62
2021/05/09 06:15:59;;;;;;;7.67;4.30;;;23.00;75.80;;;;;;4427174;32;20222;-62
2021/05/09 06:18:25;;;;;;;6.17;4.40;;;22.20;75.70;;;;;;4429198;32;20147;-63
2021/05/09 06:20:53;;;;;;;6.03;4.70;;;20.90;79.20;;;;;;4427810;32;20261;-62
2021/05/09 06:23:21;;;;;;;7.73;4.90;;;20.10;83.20;;;;;;4430026;32;20238;-62
2021/05/09 06:25:47;;;;;;;7.17;4.30;;;19.60;85.10;;;;;;4426886;32;20210;-62
2021/05/09 06:28:14;;;;;;;6.53;4.37;;;19.10;86.80;;;;;;4430484;32;20230;-62
2021/05/09 06:30:43;;;;;;;6.13;5.10;;;18.70;88.50;;;;;;4429950;32;20234;-61
2021/05/09 06:33:09;;;;;;;4.97;4.33;;;18.40;89.80;;;;;;4425201;32;20310;-63
2021/05/09 06:35:40;;;;;;;6.27;4.70;;;18.10;90.40;;;;;;4425999;32;20155;-63
2021/05/09 06:38:12;;;;;;;5.83;4.93;;;18.20;91.00;;;;;;4425856;32;20225;-63
2021/05/09 06:40:38;;;;;;;10.80;4.57;;;18.20;90.40;;;;;;4426610;32;20455;-63
2021/05/09 06:43:06;;;;;;;7.73;5.27;;;18.20;90.60;;;;;;4426597;32;20143;-66
2021/05/09 06:45:34;;;;;;;7.70;4.60;;;18.20;90.60;;;;;;4427189;32;20352;-66
2021/05/09 06:48:04;;;;;;;9.47;4.30;;;18.30;90.60;;;;;;4429197;32;20568;-62
2021/05/09 06:50:32;;;;;;;5.90;4.67;;;18.50;90.50;;;;;;4427728;32;20192;-64
2021/05/09 06:52:59;;;;;;;4.60;4.13;;;19.10;89.70;;;;;;4431765;32;20169;-63
2021/05/09 06:55:25;;;;;;;8.87;4.23;;;20.70;87.00;;;;;;4425871;32;20197;-65
2021/05/09 06:57:52;;;;;;;7.17;3.77;;;24.80;73.60;;;;;;4428715;32;20224;-66
2021/05/09 07:00:20;;;;;;;7.07;3.30;;;27.90;63.90;;;;;;4435191;32;20234;-64
2021/05/09 07:02:47;;;;;;;5.87;3.87;;;28.70;58.90;;;;;;4430713;32;20241;-64
2021/05/09 07:05:17;;;;;;;5.67;3.60;;;27.60;57.90;;;;;;4428667;32;20140;-65
2021/05/09 07:07:48;;;;;;;4.83;3.70;;;26.10;62.80;;;;;;4430453;32;20227;-66
2021/05/09 07:10:15;;;;;;;4.80;3.77;;;26.50;63.10;;;;;;4429996;32;20247;-65
2021/05/09 07:12:42;;;;;;;3.80;3.03;;;27.00;62.10;;;;;;4427880;32;20250;-66
2021/05/09 07:15:09;;;;;;;7.07;3.75;;;28.00;60.90;;;;;;4427853;32;20174;-65
2021/05/09 07:17:36;;;;;;;4.80;3.50;;;30.40;55.30;;;;;;4427282;32;20194;-66
2021/05/09 07:20:03;;;;;;;7.93;4.43;;;30.90;52.20;;;;;;4428124;32;20234;-65
2021/05/09 07:22:33;;;;;;;6.22;3.70;;;30.50;51.40;;;;;;4426485;32;20155;-66
2021/05/09 07:24:59;;;;;;;5.43;3.87;;;31.40;51.70;;;;;;4426357;32;20180;-66
2021/05/09 07:27:29;;;;;;;4.53;3.70;;;32.00;48.60;;;;;;4357399;32;2281241;-66
2021/05/09 07:29:55;;;;;;;6.97;3.40;;;33.90;46.80;;;;;;4431291;32;20158;-66
2021/05/09 07:32:21;;;;;;;5.60;3.05;;;36.20;42.50;;;;;;4429164;32;20182;-66
2021/05/09 07:34:47;;;;;;;3.25;2.58;;;38.30;39.10;;;;;;4426319;32;20290;-65
2021/05/09 07:37:14;;;;;;;4.70;3.55;;;40.30;38.20;;;;;;4426758;32;20219;-65
2021/05/09 07:39:41;;;;;;;5.50;2.72;;;43.00;33.90;;;;;;4428507;32;20286;-65
2021/05/09 07:42:07;;;;;;;3.75;3.28;;;45.00;32.70;;;;;;4426536;32;20802;-65
2021/05/09 07:44:33;;;;;;;3.25;2.53;;;46.60;30.60;;;;;;4426689;32;20257;-65
2021/05/09 07:47:00;;;;;;;3.58;2.90;;;47.40;29.90;;;;;;4424218;32;20182;-65
2021/05/09 07:49:26;;;;;;;5.07;2.55;;;48.20;29.40;;;;;;4427426;32;20505;-65
2021/05/09 07:51:52;;;;;;;4.62;3.28;;;48.40;29.40;;;;;;4425757;32;20219;-66
2021/05/09 07:54:18;;;;;;;4.62;2.55;;;48.60;28.80;;;;;;4424163;32;20214;-66
2021/05/09 07:56:46;;;;;;;5.53;2.92;;;48.50;28.90;;;;;;4429250;32;20179;-65
2021/05/09 07:59:12;;;;;;;3.10;2.00;;;48.40;28.50;;;;;;4427942;32;20173;-66
2021/05/09 08:01:38;;;;;;;2.55;1.95;;;47.60;28.70;;;;;;4426699;32;20496;-65
2021/05/09 08:04:05;;;;;;;3.47;2.25;;;47.10;28.80;;;;;;4421649;32;20171;-66
2021/05/09 08:06:31;;;;;;;2.87;2.25;;;43.70;29.50;;;;;;4422918;32;20184;-66
2021/05/09 08:09:00;;;;;;;4.00;2.42;;;41.50;30.30;;;;;;4418357;32;20241;-65
2021/05/09 08:11:27;;;;;;;7.70;3.03;;;40.20;31.50;;;;;;4426553;32;20147;-65
2021/05/09 08:13:54;;;;;;;3.92;2.37;;;40.20;31.60;;;;;;4413683;32;20270;-65
2021/05/09 08:16:20;;;;;;;2.65;2.45;;;39.40;32.10;;;;;;4425657;32;20520;-67
2021/05/09 08:18:47;;;;;;;5.03;2.40;;;38.60;32.50;;;;;;4424664;32;20177;-66
2021/05/09 08:21:13;;;;;;;3.37;2.50;;;38.40;33.20;;;;;;4422831;32;20163;-66
2021/05/09 08:23:43;;;;;;;4.55;2.75;;;39.80;33.30;;;;;;4423562;32;20566;-67
2021/05/09 08:26:10;;;;;;;3.22;2.50;;;40.70;32.20;;;;;;4419667;32;20194;-67
2021/05/09 08:28:36;;;;;;;3.87;2.67;;;42.70;31.00;;;;;;4422727;32;20996;-67
2021/05/09 08:31:04;;;;;;;3.03;2.37;;;44.20;30.80;;;;;;4424058;32;20702;-66
2021/05/09 08:33:30;;;;;;;4.32;3.15;;;45.60;29.60;;;;;;4423587;32;20228;-66
2021/05/09 08:35:56;;;;;;;6.93;3.20;;;45.60;29.40;;;;;;4423836;32;20171;-67
2021/05/09 08:38:24;;;;;;;5.87;3.70;;;44.10;29.40;;;;;;4424711;32;20186;-66
2021/05/09 08:40:50;;;;;;;5.22;3.28;;;40.00;31.20;;;;;;4425017;32;20227;-66
2021/05/09 08:43:17;;;;;;;3.87;3.30;;;37.00;33.90;;;;;;4421351;32;20518;-66
2021/05/09 08:45:43;;;;;;;5.57;3.75;;;36.10;35.30;;;;;;4428314;32;20204;-65
2021/05/09 08:48:16;;;;;;;6.70;4.10;;;35.40;35.60;;;;;;4430750;32;20171;-65
2021/05/09 08:50:43;;;;;;;6.80;4.20;;;33.60;37.30;;;;;;4428534;32;20163;-66
2021/05/09 08:53:10;;;;;;;6.72;4.07;;;32.70;38.60;;;;;;4428759;32;20757;-65
2021/05/09 08:55:36;;;;;;;6.53;4.25;;;32.20;40.10;;;;;;4423030;32;20348;-66
2021/05/09 08:58:03;;;;;;;4.95;4.50;;;32.30;39.20;;;;;;4423080;32;20219;-66
2021/05/09 09:00:29;;;;;;;5.25;4.53;;;30.50;41.90;;;;;;4422425;32;20223;-65
2021/05/09 09:02:56;;;;;;;5.78;3.97;;;30.50;44.60;;;;;;4421768;32;20484;-67
2021/05/09 09:05:35;;;;;;;5.87;4.10;;;35.50;40.60;;;;;;4427094;32;20172;-67
2021/05/09 09:08:03;;;;;;;5.32;4.03;;;41.20;34.10;;;;;;4420474;32;20212;-66
2021/05/09 09:10:35;;;;;;;5.78;4.37;;;43.00;31.50;;;;;;4424904;32;20151;-67
2021/05/09 09:13:03;;;;;;;7.47;4.20;;;43.00;31.20;;;;;;4427143;32;20183;-66
2021/05/09 09:15:53;;;;;;;7.05;4.22;;;42.30;31.00;;;;;;4427172;32;20232;-67
2021/05/09 09:18:31;;;;;;;5.00;3.47;;;42.40;31.40;;;;;;4423878;32;20645;-67
2021/05/09 09:20:59;;;;;;;5.28;4.50;;;43.60;30.40;;;;;;4424230;32;20217;-67
2021/05/09 09:23:44;;;;;;;4.47;3.85;;;42.20;31.40;;;;;;4423110;32;20222;-66
2021/05/09 09:26:41;;;;;;;7.00;4.35;;;43.40;31.10;;;;;;4426950;32;20282;-67
2021/05/09 09:29:25;;;;;;;6.60;4.43;;;40.60;33.60;;;;;;4420423;32;20273;-67
2021/05/09 09:31:54;;;;;;;7.22;4.20;;;38.40;35.00;;;;;;4428804;32;20180;-67
2021/05/09 09:34:22;;;;;;;4.93;4.45;;;35.30;37.50;;;;;;4429079;32;20155;-65
2021/05/09 09:37:00;;;;;;;6.78;4.20;;;32.20;40.90;;;;;;4423363;32;20159;-66
2021/05/09 09:39:44;;;;;;;6.28;4.55;;;30.40;44.60;;;;;;4423408;32;20657;-66
2021/05/09 09:42:11;;;;;;;5.47;4.55;;;29.20;49.50;;;;;;4426733;32;20209;-66
2021/05/09 09:44:37;;;;;;;6.97;3.90;;;28.40;52.50;;;;;;4427195;32;20289;-67
2021/05/09 09:47:04;;;;;;;6.93;4.30;;;27.80;56.50;;;;;;4428713;32;20174;-65
2021/05/09 09:49:34;;;;;;;5.07;3.50;;;27.40;59.80;;;;;;4426265;32;20173;-66
2021/05/09 09:52:04;;;;;;;6.87;3.83;;;27.10;60.50;;;;;;4419568;32;20245;-66
2021/05/09 09:54:40;;;;;;;5.75;4.80;;;26.50;62.00;;;;;;4422655;32;20234;-66
2021/05/09 09:57:08;;;;;;;4.97;4.28;;;26.00;63.70;;;;;;4428950;32;20198;-66
2021/05/09 09:59:35;;;;;;;4.95;3.90;;;25.80;66.10;;;;;;4425532;32;20184;-67
2021/05/09 10:02:06;;;;;;;5.28;3.28;;;25.80;65.70;;;;;;4428639;32;20178;-67
2021/05/09 10:04:35;;;;;;;5.30;3.87;;;25.80;67.00;;;;;;4428379;32;20170;-65
2021/05/09 10:07:08;;;;;;;6.35;3.70;;;25.80;66.30;;;;;;4426563;32;20178;-67
2021/05/09 10:09:35;;;;;;;6.95;3.50;;;25.80;67.00;;;;;;4424597;32;20248;-67
2021/05/09 10:12:01;;;;;;;5.53;3.12;;;26.00;66.80;;;;;;4427104;32;20204;-66
2021/05/09 10:14:29;;;;;;;3.60;3.08;;;26.20;65.40;;;;;;4427114;32;20187;-66
2021/05/09 10:16:56;;;;;;;3.45;2.72;;;26.00;66.30;;;;;;4427809;32;22747;-66
2021/05/09 10:19:27;;;;;;;5.75;3.53;;;26.10;65.60;;;;;;4429717;32;20155;-64
2021/05/09 10:21:53;;;;;;;6.45;3.25;;;26.00;65.90;;;;;;4429175;32;20531;-64
2021/05/09 10:24:25;;;;;;;5.85;3.47;;;26.00;65.50;;;;;;4422284;32;20167;-64
2021/05/09 10:26:54;;;;;;;4.87;3.45;;;26.10;66.10;;;;;;4422460;32;20179;-66
2021/05/09 10:29:47;;;;;;;5.15;3.15;;;26.10;65.70;;;;;;4436369;32;20219;-64
2021/05/09 10:32:44;;;;;;;2.90;2.62;;;25.90;66.10;;;;;;4428572;32;20155;-65
2021/05/09 10:35:11;;;;;;;3.67;3.00;;;26.00;67.00;;;;;;4423164;32;20487;-65
2021/05/09 10:38:04;;;;;;;5.97;3.12;;;26.00;66.50;;;;;;4422222;32;20207;-66
2021/05/09 10:40:34;;;;;;;3.17;2.87;;;25.90;66.10;;;;;;4422190;32;20178;-66
2021/05/09 10:43:29;;;;;;;3.30;3.00;;;26.00;65.80;;;;;;4425284;32;20156;-64
2021/05/09 10:45:57;;;;;;;4.95;3.05;;;26.00;66.60;;;;;;4429823;32;20146;-66
2021/05/09 10:48:30;;;;;;;3.97;2.80;;;26.00;66.20;;;;;;4427632;32;20159;-64
2021/05/09 10:51:28;;;;;;;3.15;2.75;;;25.90;67.10;;;;;;4424342;32;20163;-66
2021/05/09 10:53:56;;;;;;;3.83;2.58;;;26.10;65.80;;;;;;4424207;32;20200;-64
2021/05/09 10:56:34;;;;;;;4.20;3.03;;;26.20;66.00;;;;;;4423121;32;20155;-66
2021/05/09 10:59:01;;;;;;;6.30;3.20;;;26.10;65.70;;;;;;4428798;32;20222;-66
2021/05/09 11:01:32;;;;;;;4.90;3.00;;;26.00;66.00;;;;;;4435208;32;20150;-67
2021/05/09 11:04:02;;;;;;;4.97;2.67;;;26.00;66.80;;;;;;4422618;32;20631;-67
2021/05/09 11:06:46;;;;;;;3.87;2.75;;;25.60;66.80;;;;;;4436865;32;20187;-67
2021/05/09 11:09:14;;;;;;;4.55;2.70;;;25.10;68.50;;;;;;4435970;32;20209;-65
2021/05/09 11:12:04;;;;;;;6.28;3.47;;;24.60;70.30;;;;;;4434164;32;20174;-68
2021/05/09 11:14:33;;;;;;;4.80;3.17;;;24.00;74.00;;;;;;4421433;32;20508;-66
2021/05/09 11:17:06;;;;;;;2.78;2.53;;;23.30;77.00;;;;;;4421782;32;20222;-65
2021/05/09 11:19:46;;;;;;;5.50;3.00;;;22.50;80.30;;;;;;4422394;32;20287;-65
2021/05/09 11:22:13;;;;;;;9.53;3.57;;;21.80;84.80;;;;;;4423324;32;20263;-65
2021/05/09 11:24:41;;;;;;;6.00;4.07;;;21.00;92.40;;;;;;4433552;32;20151;-66
2021/05/09 11:27:11;;;;;;;6.60;4.00;;;20.30;95.20;;;;;;4436412;32;20151;-64
2021/05/09 11:29:40;;;;;;;5.87;4.20;;;19.60;97.80;;;;;;4432179;32;20152;-65
2021/05/09 11:32:13;;;;;;;9.63;5.30;;;19.30;99.70;;;;;;4429685;32;20542;-65
2021/05/09 11:34:50;;;;;;;8.50;5.03;;;19.10;99.90;;;;;;4423795;32;20201;-65
2021/05/09 11:37:19;;;;;;;7.47;4.47;;;19.00;99.90;;;;;;4422431;32;20170;-68
2021/05/09 11:39:45;;;;;;;7.13;5.50;;;18.80;99.90;;;;;;4421490;32;20660;-66
2021/05/09 11:42:15;;;;;;;10.23;5.83;;;18.80;99.90;;;;;;4421665;32;20479;-66
2021/05/09 11:44:43;;;;;;;10.57;5.67;;;18.70;99.90;;;;;;4432979;32;20173;-67
2021/05/09 11:47:12;;;;;;;10.77;6.37;;;18.60;99.90;;;;;;4436841;32;20162;-66
2021/05/09 11:49:39;;;;;;;8.73;5.40;;;18.90;99.90;;;;;;4424198;32;20223;-64
2021/05/09 11:52:11;;;;;;;6.70;5.30;;;19.00;99.90;;;;;;4423670;32;20177;-67
2021/05/09 11:54:39;;;;;;;6.97;4.80;;;19.00;99.90;;;;;;4427970;32;20156;-65
2021/05/09 11:57:11;;;;;;;8.30;5.40;;;19.00;99.90;;;;;;4435148;32;20215;-68
2021/05/09 11:59:41;;;;;;;6.17;4.90;;;19.10;99.90;;;;;;4429247;32;20187;-65
2021/05/09 12:02:20;;;;;;;6.00;4.23;;;19.30;99.90;;;;;;4434112;32;20191;-65
2021/05/09 12:04:51;;;;;;;11.10;5.00;;;19.30;99.90;;;;;;4430235;32;20580;-66
2021/05/09 12:07:19;;;;;;;5.80;4.90;;;18.90;99.90;;;;;;4437098;32;20187;-65
2021/05/09 12:10:00;;;;;;;7.83;5.10;;;18.60;99.90;;;;;;4425291;32;20170;-68
2021/05/09 12:12:29;;;;;;;6.73;4.33;;;18.70;99.90;;;;;;4432752;32;20181;-67
2021/05/09 12:15:06;;;;;;;5.57;4.73;;;18.70;99.90;;;;;;4423846;32;20161;-65
2021/05/09 12:17:33;;;;;;;7.47;4.27;;;18.90;99.90;;;;;;4420777;32;20487;-67
2021/05/09 12:19:59;;;;;;;6.73;4.00;;;19.40;99.90;;;;;;4421335;32;20499;-66
2021/05/09 12:22:30;;;;;;;4.60;3.87;;;19.90;99.90;;;;;;4421205;32;20214;-66
2021/05/09 12:24:58;;;;;;;5.27;3.70;;;20.20;99.30;;;;;;4427275;32;20175;-66
2021/05/09 12:27:25;;;;;;;6.10;3.77;;;20.40;98.10;;;;;;4434847;32;20154;-65
2021/05/09 12:29:52;;;;;;;4.47;3.30;;;20.60;97.90;;;;;;4435068;32;20174;-66
2021/05/09 12:32:26;;;;;;;6.53;3.50;;;20.70;96.80;;;;;;4436350;32;20606;-67
2021/05/09 12:35:09;;;;;;;6.03;3.70;;;20.70;97.10;;;;;;4432463;32;20155;-66
2021/05/09 12:37:36;;;;;;;3.93;3.00;;;20.70;96.30;;;;;;4414581;32;20182;-66
2021/05/09 12:40:19;;;;;;;5.47;3.80;;;20.80;95.50;;;;;;4420542;32;20547;-64
2021/05/09 12:43:06;;;;;;;4.07;3.67;;;20.90;95.70;;;;;;4422101;32;20495;-66
2021/05/09 12:45:38;;;;;;;8.10;3.53;;;21.20;96.00;;;;;;4429867;32;20151;-65
2021/05/09 12:48:11;;;;;;;4.90;3.80;;;21.20;95.90;;;;;;4428133;32;20652;-68
2021/05/09 12:50:53;;;;;;;6.07;3.73;;;21.40;96.00;;;;;;4425108;32;20243;-66
2021/05/09 12:53:51;;;;;;;6.60;3.50;;;21.40;94.60;;;;;;4436412;32;20202;-65